Time;durP1;ratioP1;P1;durP2;ratioP2;P2;SDS_P1;SDS_P2;PMS_P1;PMS_P2;Temp;Humidity;BMP_temperature;BMP_pressure;BME280_temperature;BME280_humidity;BME280_pressure;Samples;Min_cycle;Max_cycle;Signal;HPM_P1;HPM_P2
2024/04/17 02:15:53;;;;;;;12.50;9.10;;;;;;;3.73;84.08;98523.61;101187;1286;647928;-82
2024/04/17 02:18:21;;;;;;;12.60;8.80;;;;;;;3.92;83.20;98514.05;102972;1260;136449;-80
2024/04/17 02:20:48;;;;;;;14.40;9.00;;;;;;;3.86;83.35;98513.60;103153;1263;107660;-81
2024/04/17 02:23:15;;;;;;;14.10;8.50;;;;;;;3.80;83.29;98505.19;102885;1263;95107;-81
2024/04/17 02:25:42;;;;;;;13.30;9.30;;;;;;;3.74;83.54;98502.97;102761;1264;138014;-81
2024/04/17 02:28:10;;;;;;;13.40;9.60;;;;;;;3.71;83.62;98502.21;102989;1263;105856;-81
2024/04/17 02:30:37;;;;;;;14.70;8.80;;;;;;;3.70;83.29;98496.58;102724;1264;137639;-81
2024/04/17 02:33:04;;;;;;;14.80;9.60;;;;;;;3.70;83.42;98502.23;102754;1264;107124;-82
2024/04/17 02:35:31;;;;;;;14.30;9.10;;;;;;;3.70;83.50;98500.52;102977;1264;95119;-82
2024/04/17 02:37:58;;;;;;;15.60;10.00;;;;;;;3.70;83.41;98494.00;102780;1264;137751;-82
2024/04/17 02:40:26;;;;;;;18.00;9.30;;;;;;;3.67;83.30;98492.71;102800;1264;106675;-80
2024/04/17 02:42:53;;;;;;;15.00;9.70;;;;;;;3.63;83.12;98493.86;102905;1264;139258;-82
2024/04/17 02:45:20;;;;;;;14.80;9.70;;;;;;;3.61;83.26;98492.55;102800;1264;107858;-82
2024/04/17 02:47:47;;;;;;;12.40;9.20;;;;;;;3.60;83.02;98495.35;102848;1264;96506;-82
2024/04/17 02:50:14;;;;;;;15.60;9.00;;;;;;;3.55;83.00;98489.30;102586;1267;136586;-82
2024/04/17 02:52:42;;;;;;;15.90;9.50;;;;;;;3.56;82.98;98493.40;102875;1263;107470;-81
2024/04/17 02:55:09;;;;;;;15.90;9.60;;;;;;;3.54;83.01;98496.55;102778;1263;137663;-81
2024/04/17 02:57:36;;;;;;;14.70;9.40;;;;;;;3.52;83.04;98500.57;102963;1263;107362;-81
2024/04/17 03:00:04;;;;;;;13.30;9.10;;;;;;;3.52;83.07;98500.92;102828;1264;96501;-82
2024/04/17 03:02:31;;;;;;;15.00;9.00;;;;;;;3.50;82.92;98498.73;102844;1265;138110;-80
2024/04/17 03:04:58;;;;;;;12.90;9.50;;;;;;;3.49;82.74;98493.98;103047;1263;108054;-81
2024/04/17 03:07:25;;;;;;;17.50;9.70;;;;;;;3.49;82.91;98492.09;102780;1265;137718;-81
2024/04/17 03:09:53;;;;;;;13.90;9.50;;;;;;;3.47;82.90;98499.00;103308;1261;107741;-81
2024/04/17 03:12:20;;;;;;;14.30;9.10;;;;;;;3.48;83.01;98499.17;103094;1261;137770;-80
2024/04/17 03:14:47;;;;;;;15.80;9.50;;;;;;;3.47;83.07;98497.98;103234;1257;109720;-81
2024/04/17 03:17:14;;;;;;;16.80;10.60;;;;;;;3.47;82.78;98507.10;103200;1258;108321;-81
2024/04/17 03:19:41;;;;;;;17.90;10.60;;;;;;;3.46;82.89;98509.90;103212;1257;138007;-82
2024/04/17 03:22:09;;;;;;;14.30;9.60;;;;;;;3.44;82.75;98502.02;103256;1261;107412;-82
2024/04/17 03:24:37;;;;;;;14.30;9.70;;;;;;;3.43;82.74;98506.55;103182;1257;138157;-82
2024/04/17 03:27:04;;;;;;;15.40;10.30;;;;;;;3.42;82.93;98511.22;102522;1257;1003142;-82
2024/04/17 03:29:31;;;;;;;16.80;10.00;;;;;;;3.40;82.79;98519.48;103509;1257;106847;-81
2024/04/17 03:32:00;;;;;;;14.40;10.30;;;;;;;3.40;82.92;98524.83;103211;1257;138010;-82
2024/04/17 03:34:27;;;;;;;14.60;9.70;;;;;;;3.39;82.90;98526.58;103243;1257;107659;-81
2024/04/17 03:36:54;;;;;;;17.70;10.30;;;;;;;3.37;82.89;98524.08;103187;1257;138629;-81
2024/04/17 03:39:21;;;;;;;16.00;10.20;;;;;;;3.33;82.97;98527.27;103186;1261;111078;-81
2024/04/17 03:41:49;;;;;;;16.60;10.40;;;;;;;3.31;82.86;98525.45;103156;1261;108252;-81
2024/04/17 03:44:16;;;;;;;20.40;10.70;;;;;;;3.26;82.92;98529.55;103129;1259;138870;-79
2024/04/17 03:46:45;;;;;;;18.10;11.20;;;;;;;3.23;82.85;98531.02;103185;1257;107282;-79
2024/04/17 03:49:12;;;;;;;18.00;10.50;;;;;;;3.22;82.70;98533.95;103131;1257;137973;-80
2024/04/17 03:51:39;;;;;;;16.30;10.10;;;;;;;3.21;83.15;98537.06;103133;1257;110102;-81
2024/04/17 03:54:06;;;;;;;15.60;10.60;;;;;;;3.21;82.93;98538.79;103227;1257;108253;-81
2024/04/17 03:56:33;;;;;;;13.80;10.20;;;;;;;3.23;83.14;98536.87;103127;1257;137762;-81
2024/04/17 03:59:00;;;;;;;14.20;10.10;;;;;;;3.27;82.90;98534.34;103194;1260;107576;-81
2024/04/17 04:01:27;;;;;;;15.90;10.60;;;;;;;3.30;83.04;98535.61;103116;1260;139123;-82
2024/04/17 04:03:54;;;;;;;16.40;11.40;;;;;;;3.32;82.79;98534.53;103331;1261;111268;-80
2024/04/17 04:06:21;;;;;;;13.40;10.30;;;;;;;3.34;82.88;98538.40;103106;1257;138297;-79
2024/04/17 04:08:48;;;;;;;15.20;10.10;;;;;;;3.38;82.81;98539.66;103186;1257;96496;-80
2024/04/17 04:11:15;;;;;;;17.70;10.80;;;;;;;3.40;82.60;98538.24;103079;1257;108641;-80
2024/04/17 04:13:42;;;;;;;20.30;11.00;;;;;;;3.47;82.70;98544.90;103812;1257;138074;-81
2024/04/17 04:16:10;;;;;;;16.10;11.00;;;;;;;3.52;82.60;98546.10;103242;1257;109878;-80
2024/04/17 04:18:37;;;;;;;15.80;9.90;;;;;;;3.57;82.49;98547.66;103088;1258;138280;-80
2024/04/17 04:21:04;;;;;;;16.50;10.40;;;;;;;3.63;82.35;98547.83;104449;1257;94387;-80
2024/04/17 04:23:31;;;;;;;15.00;10.70;;;;;;;3.72;82.22;98553.56;103667;1257;107568;-81
2024/04/17 04:25:58;;;;;;;13.80;10.40;;;;;;;3.83;82.09;98550.98;104245;1257;138392;-80
2024/04/17 04:28:25;;;;;;;14.40;10.00;;;;;;;3.99;81.99;98549.42;103401;1262;110153;-80
2024/04/17 04:30:52;;;;;;;15.30;9.90;;;;;;;4.31;81.85;98554.39;104311;1257;138948;-81
2024/04/17 04:33:20;;;;;;;20.90;9.20;;;;;;;5.33;81.81;98549.98;103635;1258;96769;-80
2024/04/17 04:35:47;;;;;;;16.30;9.10;;;;;;;6.75;80.42;98551.80;103219;1257;107478;-79
2024/04/17 04:38:14;;;;;;;14.00;8.30;;;;;;;8.24;78.23;98544.30;103111;1257;137819;-80
2024/04/17 04:40:41;;;;;;;12.30;8.40;;;;;;;9.62;75.29;98546.46;103254;1259;108997;-79
2024/04/17 04:43:08;;;;;;;11.00;8.10;;;;;;;10.96;73.17;98544.08;103131;1257;138758;-80
2024/04/17 04:45:35;;;;;;;12.20;8.30;;;;;;;12.20;69.41;98545.27;103271;1257;97167;-80
2024/04/17 04:48:02;;;;;;;13.00;8.10;;;;;;;13.36;67.09;98544.34;103288;1261;106752;-81
2024/04/17 04:50:31;;;;;;;11.00;7.60;;;;;;;14.52;64.64;98542.11;103057;1262;138415;-81
2024/04/17 04:52:58;;;;;;;11.80;7.70;;;;;;;15.55;61.33;98542.74;103967;1257;109321;-80
2024/04/17 04:55:25;;;;;;;10.90;7.70;;;;;;;16.52;59.28;98538.21;102989;1257;137511;-80
2024/04/17 04:57:54;;;;;;;12.10;7.80;;;;;;;17.49;56.95;98538.77;103244;1261;96555;-80
2024/04/17 05:00:22;;;;;;;11.90;7.60;;;;;;;18.39;55.17;98539.31;103135;1257;138928;-81
2024/04/17 05:02:49;;;;;;;13.60;7.60;;;;;;;19.15;52.53;98546.70;103115;1261;97241;-79
2024/04/17 05:05:17;;;;;;;12.60;7.30;;;;;;;19.71;50.38;98547.75;103301;1257;110714;-80
2024/04/17 05:07:44;;;;;;;10.10;7.00;;;;;;;20.36;49.35;98549.83;103333;1257;137648;-80
2024/04/17 05:10:11;;;;;;;12.10;7.70;;;;;;;20.99;47.68;98550.69;103617;1253;96451;-81
2024/04/17 05:12:39;;;;;;;12.10;7.50;;;;;;;21.56;46.21;98548.91;103377;1253;138706;-80
2024/04/17 05:15:07;;;;;;;10.50;6.90;;;;;;;22.14;45.06;98548.05;103440;1253;96470;-81
2024/04/17 05:17:34;;;;;;;11.80;7.40;;;;;;;22.76;43.69;98549.73;103603;1256;108862;-79
2024/04/17 05:20:01;;;;;;;11.50;6.60;;;;;;;23.39;42.97;98553.65;103368;1257;137542;-82
2024/04/17 05:22:28;;;;;;;11.00;6.60;;;;;;;23.92;41.21;98559.96;103422;1253;96506;-82
2024/04/17 05:24:55;;;;;;;9.40;6.70;;;;;;;24.18;40.06;98563.16;103467;1253;137487;-81
2024/04/17 05:27:22;;;;;;;11.20;6.70;;;;;;;24.52;39.31;98556.02;103528;1253;97112;-83
2024/04/17 05:29:49;;;;;;;9.70;7.00;;;;;;;24.93;38.41;98557.60;103495;1253;111084;-80
2024/04/17 05:32:16;;;;;;;8.90;6.90;;;;;;;25.36;37.60;98554.75;103448;1253;137820;-80
2024/04/17 05:34:43;;;;;;;11.60;7.00;;;;;;;25.60;36.98;98557.36;103617;1253;96528;-76
2024/04/17 05:37:10;;;;;;;8.00;6.50;;;;;;;25.68;35.84;98563.20;103375;1253;137483;-80
2024/04/17 05:39:37;;;;;;;8.70;6.60;;;;;;;25.34;35.49;98563.70;103696;1253;97183;-79
2024/04/17 05:42:05;;;;;;;10.50;6.50;;;;;;;24.30;34.77;98570.67;103494;1255;110101;-79
2024/04/17 05:44:32;;;;;;;10.00;6.40;;;;;;;23.75;35.27;98574.16;103495;1253;138413;-78
2024/04/17 05:47:00;;;;;;;10.60;7.20;;;;;;;23.52;35.09;98574.64;103393;1255;96454;-80
2024/04/17 05:49:27;;;;;;;11.10;7.10;;;;;;;23.10;35.09;98576.64;103354;1253;139616;-78
2024/04/17 05:51:54;;;;;;;8.10;6.40;;;;;;;22.41;35.22;98575.98;104735;1253;96329;-79
2024/04/17 05:54:21;;;;;;;10.30;6.90;;;;;;;22.03;35.74;98580.58;103954;1255;137461;-79
2024/04/17 05:56:49;;;;;;;8.80;6.60;;;;;;;21.84;35.81;98584.30;104196;1256;107260;-80
2024/04/17 05:59:16;;;;;;;10.60;7.40;;;;;;;21.49;35.87;98582.91;103886;1253;96460;-77
2024/04/17 06:01:43;;;;;;;9.10;6.80;;;;;;;21.12;35.79;98581.63;103285;1256;137444;-83
2024/04/17 06:04:11;;;;;;;8.50;6.60;;;;;;;20.23;36.05;98589.95;103461;1253;96525;-80
2024/04/17 06:06:38;;;;;;;9.90;6.90;;;;;;;19.25;36.86;98590.02;103404;1259;137264;-80
2024/04/17 06:09:06;;;;;;;12.20;7.10;;;;;;;18.13;37.75;98589.42;103470;1253;106234;-78
2024/04/17 06:11:33;;;;;;;10.70;7.80;;;;;;;17.24;38.72;98596.48;103479;1255;96473;-81
2024/04/17 06:14:00;;;;;;;9.30;7.30;;;;;;;16.50;39.72;98597.83;103277;1257;137261;-79
2024/04/17 06:16:27;;;;;;;8.40;6.70;;;;;;;15.85;40.72;98598.73;103403;1256;96367;-78
2024/04/17 06:18:54;;;;;;;8.80;7.00;;;;;;;15.25;41.48;98600.64;103246;1256;137471;-79
2024/04/17 06:21:21;;;;;;;13.10;7.90;;;;;;;14.70;42.48;98600.63;104691;1253;107847;-79
2024/04/17 06:23:48;;;;;;;10.80;7.70;;;;;;;14.26;43.39;98605.95;104698;1257;96353;-80
2024/04/17 06:26:15;;;;;;;9.30;7.60;;;;;;;14.06;44.16;98610.27;104621;1253;137497;-80
2024/04/17 06:28:42;;;;;;;10.80;7.10;;;;;;;15.15;44.77;98612.75;104167;1253;98000;-81
2024/04/17 06:31:10;;;;;;;10.80;6.90;;;;;;;15.62;43.22;98612.30;103171;1257;137556;-82
2024/04/17 06:33:37;;;;;;;10.40;6.90;;;;;;;15.42;43.33;98618.40;103221;1259;106943;-82
2024/04/17 06:36:05;;;;;;;10.80;6.90;;;;;;;15.27;43.85;98622.18;103895;1257;97693;-81
2024/04/17 06:38:32;;;;;;;8.70;6.50;;;;;;;14.93;43.87;98620.96;103386;1253;137585;-80
2024/04/17 06:41:00;;;;;;;10.80;7.40;;;;;;;14.66;44.34;98621.25;103432;1253;97812;-79
2024/04/17 06:43:27;;;;;;;9.50;6.30;;;;;;;14.35;44.67;98625.27;103290;1253;137486;-81
2024/04/17 06:45:54;;;;;;;9.20;6.60;;;;;;;14.17;45.34;98630.05;103384;1253;107639;-82
2024/04/17 06:48:22;;;;;;;10.50;6.90;;;;;;;14.13;45.58;98632.42;103734;1255;137755;-80
2024/04/17 06:50:52;;;;;;;9.30;6.90;;;;;;;13.92;45.77;98633.09;103250;1253;107342;-80
2024/04/17 06:53:19;;;;;;;8.70;6.20;;;;;;;13.73;45.97;98640.05;103480;1257;97726;-80
2024/04/17 06:55:47;;;;;;;9.30;6.40;;;;;;;13.48;46.36;98640.56;103335;1253;139218;-80
2024/04/17 06:58:14;;;;;;;8.90;6.40;;;;;;;13.85;46.78;98638.67;103292;1259;109228;-80
2024/04/17 07:00:41;;;;;;;9.90;5.40;;;;;;;13.99;46.05;98640.45;103417;1253;137629;-80
2024/04/17 07:03:08;;;;;;;8.30;6.00;;;;;;;13.86;46.27;98643.66;103417;1253;108246;-76
2024/04/17 07:05:36;;;;;;;7.80;5.60;;;;;;;13.72;46.40;98649.75;103671;1253;97813;-80
2024/04/17 07:08:03;;;;;;;8.60;6.30;;;;;;;13.58;46.61;98655.42;103488;1257;137905;-80
2024/04/17 07:10:30;;;;;;;8.60;6.60;;;;;;;13.52;47.01;98657.05;103507;1257;107832;-80
2024/04/17 07:12:57;;;;;;;9.40;6.30;;;;;;;13.50;47.17;98659.45;103436;1256;137715;-80
2024/04/17 07:15:24;;;;;;;7.60;6.00;;;;;;;13.54;47.36;98657.80;103465;1253;108223;-80
2024/04/17 07:17:51;;;;;;;8.20;6.20;;;;;;;13.85;47.40;98652.44;103476;1253;97821;-80
2024/04/17 07:20:18;;;;;;;8.30;5.50;;;;;;;14.18;47.04;98651.32;103605;1253;137405;-80
2024/04/17 07:22:46;;;;;;;9.70;5.80;;;;;;;14.29;46.99;98651.70;104739;1253;108767;-81
2024/04/17 07:25:16;;;;;;;5.70;5.00;;;;;;;15.10;47.07;98647.27;103627;1256;137486;-80
2024/04/17 07:27:44;;;;;;;5.40;4.90;;;;;;;16.54;45.15;98642.00;104537;1256;107096;-79
2024/04/17 07:30:12;;;;;;;7.70;5.60;;;;;;;16.82;44.20;98639.02;104508;1256;95998;-77
2024/04/17 07:32:40;;;;;;;8.80;5.70;;;;;;;16.83;43.72;98635.28;104258;1256;110812;-78
2024/04/17 07:35:09;;;;;;;9.20;6.00;;;;;;;16.97;43.60;98638.08;104273;1255;107603;-72
2024/04/17 07:37:36;;;;;;;8.10;5.20;;;;;;;17.60;43.07;98643.14;103256;1259;138926;-71
2024/04/17 07:40:04;;;;;;;6.50;4.50;;;;;;;18.30;42.64;98640.80;103367;1255;106132;-71
2024/04/17 07:42:31;;;;;;;6.40;4.80;;;;;;;18.30;41.45;98642.45;103363;1256;137943;-71
2024/04/17 07:44:58;;;;;;;5.70;4.50;;;;;;;18.04;41.27;98641.52;103475;1255;110549;-72
2024/04/17 07:47:25;;;;;;;5.60;4.50;;;;;;;18.43;41.36;98642.48;103172;1255;106929;-72
2024/04/17 07:49:53;;;;;;;4.40;4.00;;;;;;;19.55;40.35;98642.89;103245;1255;138445;-77
2024/04/17 07:52:20;;;;;;;3.90;3.40;;;;;;;19.56;39.38;98646.02;102974;1261;108627;-83
2024/04/17 07:54:47;;;;;;;4.40;4.00;;;;;;;19.12;38.92;98645.34;103232;1255;138310;-82
2024/04/17 07:57:14;;;;;;;6.00;4.00;;;;;;;18.33;39.26;98655.36;103499;1256;111690;-80
2024/04/17 07:59:41;;;;;;;4.40;4.00;;;;;;;17.57;39.19;98656.22;103324;1256;107383;-80
2024/04/17 08:02:08;;;;;;;4.30;3.90;;;;;;;16.82;39.74;98660.95;103336;1256;138679;-79
2024/04/17 08:04:36;;;;;;;4.60;4.20;;;;;;;16.12;40.70;98671.59;103336;1256;109362;-81
2024/04/17 08:07:03;;;;;;;5.30;4.70;;;;;;;15.47;41.45;98668.27;103267;1255;137659;-79
2024/04/17 08:09:30;;;;;;;5.50;5.00;;;;;;;14.88;42.24;98667.86;103395;1256;111448;-78
2024/04/17 08:11:57;;;;;;;9.30;5.20;;;;;;;14.29;43.19;98666.80;103579;1256;106786;-78
2024/04/17 08:14:25;;;;;;;8.90;5.50;;;;;;;13.84;44.08;98675.92;103543;1256;137530;-78
2024/04/17 08:16:52;;;;;;;6.70;5.80;;;;;;;13.46;44.83;98673.52;103437;1256;106856;-78
2024/04/17 08:19:20;;;;;;;7.40;6.00;;;;;;;13.15;45.54;98678.45;103529;1259;137631;-78
2024/04/17 08:21:47;;;;;;;8.80;6.00;;;;;;;12.85;46.27;98677.13;103505;1259;110347;-76
2024/04/17 08:24:15;;;;;;;7.50;5.70;;;;;;;12.60;46.74;98681.75;104609;1256;105681;-74
2024/04/17 08:26:42;;;;;;;7.30;6.60;;;;;;;12.40;47.29;98682.33;104560;1256;95586;-75
2024/04/17 08:29:09;;;;;;;6.20;5.60;;;;;;;12.30;47.68;98682.98;104581;1255;107122;-76
2024/04/17 08:31:36;;;;;;;6.40;5.80;;;;;;;12.24;48.08;98685.13;103883;1255;137553;-74
2024/04/17 08:34:03;;;;;;;10.00;6.20;;;;;;;11.99;48.30;98682.68;103285;1256;111120;-75
2024/04/17 08:36:30;;;;;;;7.90;6.30;;;;;;;11.71;48.96;98687.39;104416;1255;137994;-76
2024/04/17 08:38:57;;;;;;;10.20;6.80;;;;;;;11.55;49.58;98687.52;103514;1256;97776;-76
2024/04/17 08:41:27;;;;;;;8.90;6.40;;;;;;;11.46;50.10;98688.00;104539;1256;107857;-76
2024/04/17 08:44:01;;;;;;;8.60;6.90;;;;;;;11.34;50.58;98685.13;104392;1256;138168;-79
2024/04/17 08:46:29;;;;;;;10.90;7.40;;;;;;;11.17;51.01;98692.01;103292;1256;110566;-76
2024/04/17 08:48:56;;;;;;;17.50;8.20;;;;;;;11.01;51.35;98693.19;104075;1259;138003;-77
2024/04/17 08:51:25;;;;;;;10.30;7.90;;;;;;;10.88;51.91;98693.89;103323;1257;97997;-76
2024/04/17 08:53:54;;;;;;;14.70;8.40;;;;;;;10.78;52.33;98690.83;103323;1259;106758;-79
2024/04/17 08:56:25;;;;;;;10.20;7.90;;;;;;;10.89;52.71;98695.60;103183;1256;137730;-71
2024/04/17 08:58:53;;;;;;;8.40;7.10;;;;;;;11.15;52.68;98694.25;103317;1255;111546;-76
2024/04/17 09:01:21;;;;;;;8.60;6.90;;;;;;;11.22;52.53;98699.08;103208;1256;138208;-75
2024/04/17 09:03:49;;;;;;;9.90;7.80;;;;;;;11.13;52.40;98699.59;103497;1256;97800;-74
2024/04/17 09:06:16;;;;;;;9.90;7.60;;;;;;;11.05;52.83;98698.14;103318;1255;105765;-70
2024/04/17 09:08:44;;;;;;;8.30;7.10;;;;;;;11.05;53.21;98698.83;103253;1256;97711;-72
2024/04/17 09:11:11;;;;;;;12.20;7.60;;;;;;;11.18;53.13;98699.96;103182;1256;111721;-71
2024/04/17 09:13:39;;;;;;;8.00;6.90;;;;;;;11.36;53.22;98700.33;103060;1255;138496;-72
2024/04/17 09:16:06;;;;;;;9.40;7.50;;;;;;;11.49;52.82;98694.48;103597;1256;1002564;-77
2024/04/17 09:18:36;;;;;;;11.80;6.80;;;;;;;11.58;52.87;98703.86;104441;1256;137786;-80
2024/04/17 09:21:03;;;;;;;7.80;6.40;;;;;;;11.62;52.70;98706.02;103333;1256;97790;-74
2024/04/17 09:23:31;;;;;;;14.70;7.00;;;;;;;11.55;52.59;98710.67;103297;1256;110991;-75
2024/04/17 09:25:58;;;;;;;7.50;6.70;;;;;;;11.50;52.92;98712.14;103230;1256;137736;-77
2024/04/17 09:28:25;;;;;;;9.00;7.40;;;;;;;11.44;52.95;98718.91;102518;1256;1003059;-77
2024/04/17 09:30:52;;;;;;;7.70;6.50;;;;;;;11.36;53.21;98720.82;103404;1256;139760;-77
2024/04/17 09:33:20;;;;;;;9.70;7.10;;;;;;;11.26;53.32;98725.23;103294;1256;97905;-77
2024/04/17 09:35:47;;;;;;;9.10;6.60;;;;;;;11.14;53.46;98726.30;103352;1256;110477;-77
2024/04/17 09:38:17;;;;;;;7.30;6.60;;;;;;;11.05;53.69;98727.86;103459;1255;137693;-76
2024/04/17 09:40:46;;;;;;;16.60;6.80;;;;;;;10.91;54.07;98736.34;103333;1256;98017;-76
2024/04/17 09:43:22;;;;;;;7.50;6.70;;;;;;;10.80;54.51;98735.75;103253;1256;137955;-76
2024/04/17 09:45:57;;;;;;;7.60;6.90;;;;;;;10.65;54.72;98742.02;103208;1256;97894;-72
2024/04/17 09:48:26;;;;;;;8.90;6.70;;;;;;;10.50;55.28;98746.30;103143;1257;138102;-75
2024/04/17 09:50:56;;;;;;;8.80;6.30;;;;;;;10.36;55.75;98745.52;103835;1257;107331;-74
2024/04/17 09:53:25;;;;;;;11.40;6.10;;;;;;;10.23;55.86;98747.10;102525;1256;1003351;-74
2024/04/17 09:56:03;;;;;;;8.10;5.90;;;;;;;10.13;56.21;98751.64;103786;1255;137932;-75
2024/04/17 09:58:33;;;;;;;6.90;6.20;;;;;;;10.05;56.55;98753.11;103373;1259;97899;-84
2024/04/17 10:01:01;;;;;;;6.90;6.20;;;;;;;9.96;56.94;98753.05;103176;1256;137308;-77
2024/04/17 10:03:31;;;;;;;7.00;5.80;;;;;;;9.89;57.24;98752.23;103345;1257;106448;-77
2024/04/17 10:05:59;;;;;;;7.30;5.60;;;;;;;9.80;57.57;98754.42;103478;1259;97686;-76
2024/04/17 10:08:28;;;;;;;5.70;5.10;;;;;;;9.74;58.06;98756.15;103082;1259;137245;-77
2024/04/17 10:10:55;;;;;;;7.90;5.60;;;;;;;9.67;58.31;98756.48;103424;1256;97780;-75
2024/04/17 10:13:24;;;;;;;7.60;5.70;;;;;;;9.60;58.70;98760.67;103051;1257;144899;-75
2024/04/17 10:15:51;;;;;;;6.20;5.60;;;;;;;9.60;59.18;98758.76;103151;1255;105587;-76
2024/04/17 10:18:20;;;;;;;7.10;5.60;;;;;;;9.65;59.57;98760.95;103037;1259;138272;-73
2024/04/17 10:20:47;;;;;;;6.30;5.50;;;;;;;9.66;59.55;98755.84;103249;1257;108140;-75
2024/04/17 10:23:15;;;;;;;9.10;5.90;;;;;;;9.68;59.56;98762.70;103310;1259;97810;-75
2024/04/17 10:25:50;;;;;;;7.70;5.60;;;;;;;9.66;59.45;98760.86;104342;1256;138074;-75
2024/04/17 10:28:21;;;;;;;8.10;5.30;;;;;;;9.61;59.82;98764.60;104301;1256;108251;-75
2024/04/17 10:30:49;;;;;;;5.80;5.20;;;;;;;9.60;60.08;98767.83;104298;1256;138563;-75
2024/04/17 10:33:27;;;;;;;5.00;4.40;;;;;;;9.58;59.87;98769.45;104447;1255;107937;-68
2024/04/17 10:35:55;;;;;;;5.90;4.50;;;;;;;9.58;59.82;98774.36;104427;1256;95891;-82
2024/04/17 10:38:25;;;;;;;4.50;4.10;;;;;;;9.65;60.24;98776.74;103877;1256;138813;-84
2024/04/17 10:41:01;;;;;;;5.00;4.00;;;;;;;9.74;60.14;98776.84;103304;1259;107805;-77
2024/04/17 10:43:30;;;;;;;4.50;4.00;;;;;;;9.78;59.87;98778.70;103238;1256;138234;-76
2024/04/17 10:46:05;;;;;;;5.70;4.60;;;;;;;9.81;59.57;98779.75;103300;1257;108445;-76
2024/04/17 10:48:42;;;;;;;5.40;4.20;;;;;;;9.85;59.88;98779.85;103484;1256;138195;-76
2024/04/17 10:51:10;;;;;;;6.10;5.10;;;;;;;9.92;60.21;98781.59;103271;1259;110821;-76
2024/04/17 10:53:37;;;;;;;7.30;5.40;;;;;;;9.94;59.97;98780.23;103288;1259;107329;-76
2024/04/17 10:56:05;;;;;;;6.70;5.40;;;;;;;9.92;59.93;98781.92;103099;1256;138345;-75
2024/04/17 10:58:34;;;;;;;5.70;5.10;;;;;;;9.93;59.76;98785.67;103521;1258;106832;-76
2024/04/17 11:01:03;;;;;;;6.60;5.70;;;;;;;9.90;59.95;98780.11;103180;1256;138289;-76
2024/04/17 11:03:30;;;;;;;9.40;5.80;;;;;;;9.91;59.98;98782.87;103342;1256;110237;-77
2024/04/17 11:05:58;;;;;;;5.50;5.00;;;;;;;9.93;59.97;98782.41;103059;1257;106830;-78
2024/04/17 11:08:25;;;;;;;6.40;5.50;;;;;;;9.99;59.38;98785.39;104449;1256;138497;-77
2024/04/17 11:10:54;;;;;;;6.30;5.70;;;;;;;10.02;59.18;98780.33;104289;1256;107100;-76
2024/04/17 11:13:23;;;;;;;6.90;6.20;;;;;;;10.03;59.50;98782.02;104372;1259;138253;-77
2024/04/17 11:15:49;;;;;;;10.00;6.90;;;;;;;10.08;59.31;98784.91;104581;1256;110660;-77
2024/04/17 11:18:17;;;;;;;12.80;6.90;;;;;;;10.10;59.50;98786.34;103752;1257;1002785;-72
2024/04/17 11:20:45;;;;;;;7.30;6.60;;;;;;;10.14;59.50;98782.99;103248;1256;138492;-76
2024/04/17 11:23:12;;;;;;;7.80;7.00;;;;;;;10.20;59.36;98784.23;103312;1256;107995;-77
2024/04/17 11:25:41;;;;;;;8.20;7.00;;;;;;;10.26;59.60;98785.17;103080;1260;138731;-77
2024/04/17 11:28:13;;;;;;;10.10;7.40;;;;;;;10.39;59.64;98785.52;103286;1257;111401;-73
2024/04/17 11:30:48;;;;;;;8.20;7.40;;;;;;;10.46;59.46;98791.05;103346;1257;106935;-77
2024/04/17 11:33:16;;;;;;;8.70;7.80;;;;;;;10.49;59.64;98790.85;102890;1262;138258;-74
2024/04/17 11:35:43;;;;;;;8.70;7.70;;;;;;;10.46;59.71;98794.36;103129;1261;107238;-77
2024/04/17 11:38:13;;;;;;;8.60;7.80;;;;;;;10.40;59.94;98796.89;103145;1261;139141;-78
2024/04/17 11:40:45;;;;;;;8.50;7.70;;;;;;;10.40;60.29;98801.79;103088;1256;111406;-76
2024/04/17 11:43:16;;;;;;;8.50;7.60;;;;;;;10.47;60.41;98801.76;103199;1257;106600;-79
2024/04/17 11:45:43;;;;;;;8.30;7.50;;;;;;;10.53;60.74;98804.39;103126;1258;98325;-75
2024/04/17 11:48:11;;;;;;;8.40;7.40;;;;;;;10.59;61.01;98802.13;103293;1261;108088;-76
2024/04/17 11:50:39;;;;;;;9.30;7.50;;;;;;;10.66;61.18;98804.36;103133;1262;138834;-76
2024/04/17 11:53:06;;;;;;;6.60;6.00;;;;;;;10.64;60.79;98803.92;103860;1261;109661;-76
2024/04/17 11:55:33;;;;;;;6.90;5.60;;;;;;;10.55;60.28;98808.24;103244;1258;138865;-77
2024/04/17 11:58:01;;;;;;;6.80;6.10;;;;;;;10.47;60.60;98806.25;104099;1256;95642;-77
2024/04/17 12:00:28;;;;;;;8.40;6.80;;;;;;;10.47;60.77;98807.31;103429;1256;109265;-74
2024/04/17 12:02:55;;;;;;;7.50;6.00;;;;;;;10.45;60.97;98809.70;103158;1259;138275;-75
2024/04/17 12:05:23;;;;;;;7.10;6.40;;;;;;;10.44;61.04;98810.98;103360;1257;111465;-75
2024/04/17 12:07:51;;;;;;;7.10;6.10;;;;;;;10.45;61.18;98811.77;103320;1261;138462;-75
2024/04/17 12:10:19;;;;;;;8.00;6.80;;;;;;;10.41;60.83;98811.81;103477;1261;97873;-76
2024/04/17 12:12:46;;;;;;;7.90;7.20;;;;;;;10.33;61.14;98814.35;103363;1262;106775;-74
2024/04/17 12:15:13;;;;;;;11.50;7.90;;;;;;;10.27;61.94;98818.14;103114;1256;138366;-75
2024/04/17 12:17:40;;;;;;;7.70;7.00;;;;;;;10.24;62.48;98820.73;103399;1261;111624;-76
2024/04/17 12:20:10;;;;;;;6.90;4.60;;;;;;;10.17;62.55;98816.88;103098;1260;138530;-75
2024/04/17 12:22:38;;;;;;;6.00;2.90;;;;;;;9.94;62.28;98829.59;103285;1259;97846;-75
2024/04/17 12:27:50;;;;;;;2.60;2.40;;;;;;;9.38;63.21;98837.81;104255;1259;97055;-75
2024/04/17 12:30:16;;;;;;;5.00;2.40;;;;;;;9.19;63.77;98842.38;104537;1256;111588;-75
2024/04/17 12:32:44;;;;;;;5.20;2.30;;;;;;;9.08;64.69;98844.29;104378;1256;138851;-75
2024/04/17 12:35:12;;;;;;;12.80;2.50;;;;;;;9.01;65.51;98843.42;104572;1256;95998;-75
2024/04/17 12:37:40;;;;;;;11.50;3.00;;;;;;;8.93;66.08;98846.91;104277;1256;138490;-79
2024/04/17 12:40:09;;;;;;;7.20;2.30;;;;;;;8.86;66.57;98851.62;104403;1256;95913;-76
2024/04/17 12:42:36;;;;;;;5.30;1.90;;;;;;;8.85;67.30;98848.71;103294;1257;110741;-74
2024/04/17 12:45:04;;;;;;;5.80;2.10;;;;;;;8.85;67.11;98851.00;103051;1260;137816;-78
2024/04/17 12:47:31;;;;;;;2.40;1.90;;;;;;;8.83;67.48;98851.93;103314;1256;97814;-77
2024/04/17 12:49:58;;;;;;;7.10;1.80;;;;;;;8.85;68.16;98852.17;103179;1262;137841;-78
2024/04/17 12:52:26;;;;;;;3.50;2.50;;;;;;;8.82;68.39;98853.36;103267;1260;97890;-74
2024/04/17 12:54:55;;;;;;;3.30;1.70;;;;;;;8.77;67.82;98856.35;103585;1256;111457;-74
2024/04/17 12:57:22;;;;;;;4.50;1.70;;;;;;;8.74;67.80;98852.35;103171;1257;137936;-72
2024/04/17 12:59:49;;;;;;;4.50;1.50;;;;;;;8.73;68.03;98856.39;103059;1260;97798;-72
2024/04/17 13:02:16;;;;;;;14.00;2.30;;;;;;;8.74;68.12;98863.79;103132;1260;137812;-74
2024/04/17 13:04:54;;;;;;;14.60;2.10;;;;;;;8.72;68.51;98870.81;103133;1260;97827;-73
2024/04/17 13:07:21;;;;;;;19.10;3.20;;;;;;;8.70;68.59;98869.70;102359;1262;1003197;-73
2024/04/17 13:09:49;;;;;;;4.20;2.30;;;;;;;8.65;68.84;98874.60;103885;1260;107820;-73
2024/04/17 13:12:16;;;;;;;7.90;1.80;;;;;;;8.59;68.67;98871.41;104587;1256;96792;-81
2024/04/17 13:14:43;;;;;;;5.90;3.40;;;;;;;8.47;68.94;98873.36;103181;1257;137853;-80
2024/04/17 13:17:10;;;;;;;10.20;2.90;;;;;;;8.35;68.90;98875.81;103613;1260;97957;-80
2024/04/17 13:19:38;;;;;;;22.50;4.20;;;;;;;8.28;68.80;98877.13;102904;1262;138467;-81
2024/04/17 13:22:05;;;;;;;333.50;30.10;;;;;;;8.20;69.19;98875.91;103498;1262;106931;-78
2024/04/17 13:24:34;;;;;;;419.90;37.80;;;;;;;8.08;69.40;98876.46;103310;1258;102717;-76
2024/04/17 13:27:01;;;;;;;147.10;13.70;;;;;;;7.96;69.34;98884.61;103030;1261;138481;-78
2024/04/17 13:29:31;;;;;;;112.40;10.80;;;;;;;7.91;69.78;98882.75;103245;1262;97833;-77
2024/04/17 13:31:58;;;;;;;70.80;9.80;;;;;;;7.83;69.86;98884.29;103215;1263;138860;-79
2024/04/17 13:34:25;;;;;;;10.80;2.60;;;;;;;7.78;70.24;98893.68;103114;1258;106672;-78
2024/04/17 13:36:53;;;;;;;77.90;8.20;;;;;;;7.76;70.45;98894.95;103350;1260;98421;-76